createdAt,value
2018-09-12T00:01:26.562Z,24.87
2018-09-12T00:06:33.637Z,24.88
2018-09-12T00:11:37.225Z,24.84
2018-09-12T00:16:45.502Z,24.71
2018-09-12T00:21:49.203Z,24.75
2018-09-12T00:26:52.956Z,24.75
2018-09-12T00:31:56.679Z,24.70
2018-09-12T00:37:00.231Z,24.69
2018-09-12T00:42:04.049Z,24.65
2018-09-12T00:47:07.784Z,24.71
2018-09-12T00:52:11.339Z,24.62
2018-09-12T00:57:14.944Z,24.66
2018-09-12T01:02:18.598Z,24.62
2018-09-12T01:07:22.261Z,24.57
2018-09-12T01:12:25.876Z,24.55
2018-09-12T01:17:29.586Z,24.56
2018-09-12T01:22:33.237Z,24.53
2018-09-12T01:27:36.829Z,24.56
2018-09-12T01:32:40.435Z,24.52
2018-09-12T01:37:44.153Z,24.53
2018-09-12T01:42:47.789Z,24.50
2018-09-12T01:47:51.601Z,24.47
2018-09-12T01:52:55.257Z,24.46
2018-09-12T01:57:58.954Z,24.44
2018-09-12T02:03:02.664Z,24.43
2018-09-12T02:08:06.423Z,24.41
2018-09-12T02:13:10.124Z,24.40
2018-09-12T02:18:13.815Z,24.36
2018-09-12T02:23:17.577Z,24.34
2018-09-12T02:28:22.210Z,24.29
2018-09-12T02:33:25.943Z,24.29
2018-09-12T02:38:30.968Z,24.27
2018-09-12T02:43:36.371Z,24.25
2018-09-12T02:48:40.385Z,24.23
2018-09-12T02:53:44.279Z,24.19
2018-09-12T02:58:48.333Z,24.19
2018-09-12T03:03:52.244Z,24.19
2018-09-12T03:08:55.888Z,24.17
2018-09-12T03:13:59.482Z,24.16
2018-09-12T03:19:03.220Z,24.16
2018-09-12T03:24:12.004Z,24.17
2018-09-12T03:29:15.739Z,24.15
2018-09-12T03:34:19.689Z,24.14
2018-09-12T03:39:23.449Z,24.13
2018-09-12T03:44:26.952Z,24.12
2018-09-12T03:49:30.583Z,23.82
2018-09-12T03:54:34.182Z,23.76
2018-09-12T03:59:37.704Z,23.78
2018-09-12T04:04:41.180Z,23.69
2018-09-12T04:09:44.717Z,23.67
2018-09-12T04:14:48.166Z,23.61
2018-09-12T04:19:51.682Z,23.60
2018-09-12T04:24:55.238Z,23.57
2018-09-12T04:29:58.731Z,23.56
2018-09-12T04:35:02.287Z,23.52
2018-09-12T04:40:06.650Z,23.51
2018-09-12T04:45:10.172Z,23.51
2018-09-12T04:50:13.693Z,23.49
2018-09-12T04:55:17.236Z,23.46
2018-09-12T05:00:20.748Z,23.46
2018-09-12T05:05:24.271Z,23.44
2018-09-12T05:10:27.805Z,23.44
2018-09-12T05:15:31.349Z,23.43
2018-09-12T05:20:34.844Z,23.42
2018-09-12T05:25:38.365Z,23.42
2018-09-12T05:30:41.907Z,23.43
2018-09-12T05:35:45.379Z,23.42
2018-09-12T05:40:48.945Z,23.43
2018-09-12T05:45:52.442Z,23.43
2018-09-12T05:50:55.931Z,23.44
2018-09-12T05:55:59.508Z,23.44
2018-09-12T06:01:02.987Z,23.46
2018-09-12T06:06:06.559Z,23.45
2018-09-12T06:11:10.067Z,23.48
2018-09-12T06:16:13.549Z,23.48
2018-09-12T06:21:17.032Z,23.49
2018-09-12T06:26:20.542Z,23.50
2018-09-12T06:31:24.028Z,23.50
2018-09-12T06:36:27.483Z,23.53
2018-09-12T06:41:30.957Z,23.53
2018-09-12T06:46:34.412Z,23.41
2018-09-12T06:51:37.833Z,22.84
2018-09-12T06:56:41.280Z,22.70
2018-09-12T07:01:44.868Z,22.65
2018-09-12T07:06:48.336Z,22.46
2018-09-12T07:11:51.806Z,22.47
2018-09-12T07:16:55.293Z,22.50
2018-09-12T07:21:58.732Z,22.61
2018-09-12T07:27:02.173Z,22.64
2018-09-12T07:32:05.806Z,22.79
2018-09-12T07:37:09.252Z,22.79
2018-09-12T07:42:12.683Z,22.88
2018-09-12T07:47:16.122Z,22.96
2018-09-12T07:52:19.554Z,22.88
2018-09-12T07:57:22.987Z,22.94
2018-09-12T08:02:26.429Z,23.13
2018-09-12T08:07:29.882Z,23.18
2018-09-12T08:12:33.399Z,23.08
2018-09-12T08:17:36.810Z,23.32
2018-09-12T08:22:40.256Z,23.35
2018-09-12T08:27:43.701Z,23.44
2018-09-12T08:32:47.144Z,23.56
2018-09-12T08:37:50.569Z,23.63
2018-09-12T08:42:54.011Z,23.63
2018-09-12T08:47:57.447Z,23.80
2018-09-12T08:53:00.937Z,23.85
2018-09-12T08:58:04.377Z,23.82
2018-09-12T09:03:08.008Z,23.90
2018-09-12T09:08:11.671Z,23.99
2018-09-12T09:13:15.103Z,24.02
2018-09-12T09:18:18.538Z,23.97
2018-09-12T09:23:22.226Z,24.02
2018-09-12T09:28:25.763Z,24.02
2018-09-12T09:33:29.178Z,24.06
2018-09-12T09:38:32.586Z,24.07
2018-09-12T09:43:36.015Z,24.09
2018-09-12T09:48:39.498Z,24.10
2018-09-12T09:53:43.206Z,24.11
2018-09-12T09:58:46.651Z,24.01
2018-09-12T10:03:55.432Z,24.04
2018-09-12T10:09:04.825Z,24.03
2018-09-12T10:14:08.273Z,24.07
2018-09-12T10:19:11.710Z,24.15
2018-09-12T10:24:15.206Z,24.12
2018-09-12T10:29:18.618Z,24.14
2018-09-12T10:34:22.066Z,24.20
2018-09-12T10:39:25.584Z,24.13
2018-09-12T10:44:29.002Z,24.26
2018-09-12T10:49:45.189Z,24.33
2018-09-12T10:54:48.730Z,24.37
2018-09-12T10:59:52.169Z,24.33
2018-09-12T11:04:55.635Z,24.39
2018-09-12T11:09:59.069Z,24.28
2018-09-12T11:15:02.530Z,24.43
2018-09-12T11:20:07.378Z,24.52
2018-09-12T11:25:10.811Z,24.44
2018-09-12T11:30:14.248Z,24.49
2018-09-12T11:35:17.699Z,24.49
2018-09-12T11:40:21.128Z,24.50
2018-09-12T11:45:24.566Z,24.48
2018-09-12T11:50:27.991Z,24.45
2018-09-12T11:55:31.454Z,24.51
2018-09-12T12:00:34.918Z,24.48
2018-09-12T12:05:38.363Z,24.47
2018-09-12T12:10:41.794Z,24.49
2018-09-12T12:15:45.246Z,24.47
2018-09-12T12:20:48.732Z,24.42
2018-09-12T12:25:52.189Z,24.50
2018-09-12T12:30:55.625Z,24.60
2018-09-12T12:35:59.076Z,24.68
2018-09-12T12:41:03.065Z,24.68
2018-09-12T12:46:06.747Z,24.60
2018-09-12T12:51:10.298Z,24.67
2018-09-12T12:56:14.207Z,24.63
2018-09-12T13:01:17.980Z,24.63
2018-09-12T13:06:22.085Z,24.60
2018-09-12T13:11:25.821Z,24.54
2018-09-12T13:16:29.275Z,24.60
2018-09-12T13:21:33.311Z,24.61
2018-09-12T13:26:36.892Z,24.62
2018-09-12T13:31:40.633Z,24.71
2018-09-12T13:36:49.049Z,24.65
2018-09-12T13:41:52.500Z,24.70
2018-09-12T13:46:55.979Z,24.76
2018-09-12T13:51:59.424Z,24.81
2018-09-12T13:57:02.883Z,24.78
2018-09-12T14:02:06.374Z,24.77
2018-09-12T14:07:09.980Z,24.71
2018-09-12T14:12:13.446Z,24.63
2018-09-12T14:17:16.953Z,24.60
2018-09-12T14:22:20.481Z,24.61
2018-09-12T14:27:23.951Z,24.62
2018-09-12T14:32:27.398Z,24.64
2018-09-12T14:37:30.850Z,24.70
2018-09-12T14:42:34.275Z,24.66
2018-09-12T14:47:37.745Z,24.69
2018-09-12T14:52:41.176Z,24.70
2018-09-12T14:57:44.625Z,24.80
2018-09-12T15:02:48.102Z,24.78
2018-09-12T15:07:51.548Z,24.79
2018-09-12T15:12:55.003Z,24.84
2018-09-12T15:17:58.467Z,24.88
2018-09-12T15:23:02.080Z,25.00
2018-09-12T15:28:05.548Z,25.08
2018-09-12T15:33:09.090Z,25.15
2018-09-12T15:38:12.591Z,25.18
2018-09-12T15:43:16.092Z,25.20
2018-09-12T15:48:19.607Z,25.31
2018-09-12T15:53:23.044Z,25.38
2018-09-12T15:58:26.557Z,25.50
2018-09-12T16:03:30.116Z,25.52
2018-09-12T16:08:33.630Z,25.77
2018-09-12T16:13:37.092Z,25.77
2018-09-12T16:18:40.528Z,25.92
2018-09-12T16:23:44.022Z,25.89
2018-09-12T16:28:47.833Z,25.71
2018-09-12T16:33:51.432Z,25.67
2018-09-12T16:38:54.892Z,25.67
2018-09-12T16:43:58.331Z,25.64
2018-09-12T16:49:01.881Z,25.65
2018-09-12T16:54:05.368Z,25.66
2018-09-12T16:59:08.854Z,25.64
2018-09-12T17:04:12.355Z,25.61
2018-09-12T17:09:15.810Z,25.59
2018-09-12T17:14:19.979Z,25.57
2018-09-12T17:19:23.448Z,25.59
2018-09-12T17:24:26.963Z,25.59
2018-09-12T17:29:30.455Z,25.55
2018-09-12T17:34:33.931Z,25.60
2018-09-12T17:39:37.408Z,25.63
2018-09-12T17:44:40.870Z,25.52
2018-09-12T17:49:44.446Z,25.54
2018-09-12T17:54:47.983Z,25.57
2018-09-12T17:59:51.774Z,25.57
2018-09-12T18:04:55.408Z,25.59
2018-09-12T18:09:58.874Z,25.60
2018-09-12T18:15:03.110Z,25.63
2018-09-12T18:20:06.926Z,25.64
2018-09-12T18:25:10.399Z,25.59
2018-09-12T18:30:14.320Z,25.64
2018-09-12T18:35:17.809Z,25.61
2018-09-12T18:40:21.291Z,25.36
2018-09-12T18:45:24.757Z,25.39
2018-09-12T18:50:28.223Z,25.44
2018-09-12T18:55:31.871Z,25.53
2018-09-12T19:00:35.402Z,25.37
2018-09-12T19:05:38.894Z,25.47
2018-09-12T19:10:42.379Z,25.44
2018-09-12T19:15:45.846Z,25.48
2018-09-12T19:20:49.315Z,25.41
2018-09-12T19:25:52.758Z,25.45
2018-09-12T19:30:56.275Z,25.41
2018-09-12T19:35:59.793Z,25.38
2018-09-12T19:41:03.478Z,25.44
2018-09-12T19:46:06.933Z,25.45
2018-09-12T19:51:15.006Z,25.48
2018-09-12T19:56:18.468Z,25.44
2018-09-12T20:01:21.907Z,25.41
2018-09-12T20:06:25.360Z,25.44
2018-09-12T20:11:28.800Z,25.43
2018-09-12T20:16:32.246Z,25.50
2018-09-12T20:21:35.769Z,25.44
2018-09-12T20:26:39.244Z,25.49
2018-09-12T20:31:42.794Z,25.51
2018-09-12T20:36:46.325Z,25.48
2018-09-12T20:41:49.774Z,25.48
2018-09-12T20:52:12.427Z,25.49
2018-09-12T20:57:15.894Z,25.40
2018-09-12T21:02:19.363Z,25.46
2018-09-12T21:07:23.058Z,25.45
2018-09-12T21:12:26.594Z,25.41
2018-09-12T21:17:30.107Z,25.43
2018-09-12T21:22:33.601Z,25.41
2018-09-12T21:27:37.478Z,25.39
2018-09-12T21:32:41.047Z,25.38
2018-09-12T21:37:44.531Z,25.39
2018-09-12T21:42:47.987Z,25.33
2018-09-12T21:47:51.437Z,25.33
2018-09-12T21:52:54.907Z,25.32
2018-09-12T21:57:58.536Z,25.30
2018-09-12T22:03:02.060Z,25.30
2018-09-12T22:08:05.580Z,25.29
2018-09-12T22:13:09.027Z,25.27
2018-09-12T22:18:12.476Z,25.27
2018-09-12T22:23:15.936Z,25.23
2018-09-12T22:28:19.440Z,25.23
2018-09-12T22:33:22.985Z,25.20
2018-09-12T22:38:26.475Z,25.20
2018-09-12T22:43:29.976Z,25.15
2018-09-12T22:48:33.491Z,25.16
2018-09-12T22:53:36.992Z,25.10
2018-09-12T22:58:40.521Z,25.10
2018-09-12T23:03:43.991Z,25.11
2018-09-12T23:08:47.509Z,25.06
2018-09-12T23:13:50.939Z,25.07
2018-09-12T23:18:54.378Z,25.02
2018-09-12T23:23:57.829Z,25.00
2018-09-12T23:29:01.275Z,25.00
2018-09-12T23:34:04.732Z,24.98
2018-09-12T23:39:10.588Z,24.99
2018-09-12T23:44:14.037Z,24.95
2018-09-12T23:49:17.475Z,24.94
2018-09-12T23:54:20.962Z,24.92
2018-09-12T23:59:24.427Z,24.91
